Decoded Metar for LFBC (CAZAUX in FRANCE) (IATA:N/A) | Meteo·Mobile Aviation Weather
aviador You're here:

LFBC Decoded Metar

CAZAUX in FRANCE
Report Time2019-02-23 01:00:00
UTC Time2019-02-23 01:18:57
Flight Rules vfr VFR
Wind010° at 02 kt
W.Decomp.*RWY 06: 1.3 kt HW 1.5 kt LCW
W.Rank010° ranks 4
Current wind is below 010° avg. (5.0)
Visibility9999 m
Phenomena:N/A
Clouds:N/A
Expected CloudBase > 800 ft AGL from Temp-Dew spread
CeilingNone
Temp03°C (ISA -12)
Dew Point01°C (87% RH)
AAT0.5°C
QNH1029 hPa
Density Alt-1,775 ft
Elevation108 ft
Report Wrong Elevation
Raw Report
LFBC 230100Z AUTO 01002KT CAVOK 03/01 Q1029=

Extra information for LFBC:More info

Metar Taf Metar & Taf Last 4 Metars F.Rules Stats Wind Profile Meteogram Temp Stats Airport Information Weather charts Add Link Nearby VenuesMetar ALERT Operation Metar Decoded Social comments